createdAt,value
2018-09-05T00:01:11.468Z,99170.80
2018-09-05T00:03:46.073Z,99168.96
2018-09-05T00:06:20.748Z,99158.56
2018-09-05T00:08:55.360Z,99165.42
2018-09-05T00:11:29.911Z,99164.84
2018-09-05T00:14:04.492Z,99160.73
2018-09-05T00:16:38.956Z,99156.61
2018-09-05T00:19:13.550Z,99154.09
2018-09-05T00:21:48.386Z,99154.77
2018-09-05T00:24:23.008Z,99154.09
2018-09-05T00:26:58.029Z,99157.52
2018-09-05T00:29:32.489Z,99154.20
2018-09-05T00:32:07.272Z,99147.44
2018-09-05T00:34:41.920Z,99145.14
2018-09-05T00:37:16.560Z,99147.53
2018-09-05T00:39:51.309Z,99141.25
2018-09-05T00:42:25.990Z,99144.09
2018-09-05T00:45:00.640Z,99140.99
2018-09-05T00:47:35.292Z,99137.67
2018-09-05T00:50:10.152Z,99139.49
2018-09-05T00:52:44.928Z,99139.84
2018-09-05T00:55:19.547Z,99137.55
2018-09-05T00:57:54.224Z,99145.78
2018-09-05T01:00:28.817Z,99144.89
2018-09-05T01:03:03.389Z,99144.64
2018-09-05T01:05:38.096Z,99149.11
2018-09-05T01:08:12.643Z,99145.34
2018-09-05T01:10:47.259Z,99140.42
2018-09-05T01:13:21.911Z,99141.09
2018-09-05T01:15:56.532Z,99139.14
2018-09-05T01:18:31.073Z,99137.58
2018-09-05T01:21:06.121Z,99137.84
2018-09-05T01:23:40.562Z,99135.95
2018-09-05T01:26:15.256Z,99140.29
2018-09-05T01:28:49.892Z,99141.40
2018-09-05T01:31:24.509Z,99136.17
2018-09-05T01:33:59.573Z,99138.20
2018-09-05T01:36:34.098Z,99142.94
2018-09-05T01:39:08.724Z,99141.38
2018-09-05T01:41:43.282Z,99144.38
2018-09-05T01:44:17.817Z,99151.28
2018-09-05T01:46:52.549Z,99149.20
2018-09-05T01:49:26.992Z,99144.19
2018-09-05T01:52:01.908Z,99144.31
2018-09-05T01:54:36.429Z,99145.11
2018-09-05T01:57:11.257Z,99141.02
2018-09-05T01:59:45.816Z,99144.47
2018-09-05T02:02:20.349Z,99145.84
2018-09-05T02:04:55.988Z,99141.95
2018-09-05T02:07:30.424Z,99142.59
2018-09-05T02:10:05.368Z,99142.59
2018-09-05T02:12:40.024Z,99138.70
2018-09-05T02:15:14.573Z,99140.52
2018-09-05T02:17:49.084Z,99138.09
2018-09-05T02:20:24.139Z,99137.30
2018-09-05T02:22:58.769Z,99137.73
2018-09-05T02:25:33.356Z,99137.64
2018-09-05T02:28:08.240Z,99135.95
2018-09-05T02:30:42.981Z,99135.95
2018-09-05T02:33:17.459Z,99131.13
2018-09-05T02:35:52.130Z,99130.30
2018-09-05T02:38:26.788Z,99133.05
2018-09-05T02:41:01.389Z,99134.67
2018-09-05T02:43:41.262Z,99135.38
2018-09-05T02:46:15.902Z,99139.27
2018-09-05T02:48:50.465Z,99140.42
2018-09-05T02:51:25.256Z,99139.17
2018-09-05T02:54:01.975Z,99136.33
2018-09-05T02:56:36.873Z,99142.89
2018-09-05T03:02:16.004Z,99136.83
2018-09-05T03:07:54.243Z,99144.27
2018-09-05T03:10:28.764Z,99141.39
2018-09-05T03:13:03.337Z,99137.15
2018-09-05T03:15:38.064Z,99143.31
2018-09-05T03:18:12.876Z,99134.86
2018-09-05T03:20:47.411Z,99138.25
2018-09-05T03:23:22.061Z,99136.52
2018-09-05T03:26:29.373Z,99145.22
2018-09-05T03:29:03.871Z,99144.89
2018-09-05T03:31:38.259Z,99149.01
2018-09-05T03:34:21.304Z,99149.23
2018-09-05T03:36:55.987Z,99144.09
2018-09-05T03:39:30.806Z,99144.19
2018-09-05T03:42:08.585Z,99140.97
2018-09-05T03:44:42.976Z,99138.76
2018-09-05T03:47:17.664Z,99140.71
2018-09-05T03:49:52.148Z,99139.34
2018-09-05T03:52:26.553Z,99144.16
2018-09-05T03:55:00.995Z,99144.41
2018-09-05T03:57:35.390Z,99142.66
2018-09-05T04:00:09.923Z,99138.22
2018-09-05T04:02:44.224Z,99140.74
2018-09-05T04:05:18.556Z,99149.69
2018-09-05T04:07:52.904Z,99149.91
2018-09-05T04:10:27.291Z,99146.23
2018-09-05T04:13:01.711Z,99150.03
2018-09-05T04:15:36.181Z,99145.34
2018-09-05T04:18:10.644Z,99145.11
2018-09-05T04:20:44.900Z,99144.06
2018-09-05T04:23:19.189Z,99141.45
2018-09-05T04:25:53.616Z,99142.02
2018-09-05T04:28:28.007Z,99141.89
2018-09-05T04:31:02.428Z,99147.83
2018-09-05T04:33:36.804Z,99144.19
2018-09-05T04:36:13.259Z,99142.12
2018-09-05T04:38:47.752Z,99138.31
2018-09-05T04:41:22.164Z,99137.35
2018-09-05T04:46:56.673Z,99138.02
2018-09-05T04:49:30.888Z,99135.09
2018-09-05T04:52:05.124Z,99134.64
2018-09-05T04:54:39.545Z,99137.16
2018-09-05T04:57:13.916Z,99139.44
2018-09-05T04:59:57.844Z,99141.22
2018-09-05T05:02:38.655Z,99137.50
2018-09-05T05:05:12.896Z,99142.19
2018-09-05T05:07:47.310Z,99145.25
2018-09-05T05:10:21.803Z,99144.99
2018-09-05T05:12:56.296Z,99145.56
2018-09-05T05:15:30.715Z,99147.48
2018-09-05T05:18:05.113Z,99156.03
2018-09-05T05:20:39.472Z,99155.33
2018-09-05T05:23:14.035Z,99160.02
2018-09-05T05:25:48.268Z,99158.95
2018-09-05T05:28:22.667Z,99158.77
2018-09-05T05:30:57.085Z,99156.33
2018-09-05T05:33:31.440Z,99157.25
2018-09-05T05:36:06.090Z,99161.20
2018-09-05T05:38:40.779Z,99164.78
2018-09-05T05:41:15.356Z,99164.59
2018-09-05T05:43:49.851Z,99166.11
2018-09-05T05:46:24.075Z,99162.95
2018-09-05T05:48:58.536Z,99170.46
2018-09-05T05:51:32.940Z,99167.35
2018-09-05T05:54:07.813Z,99168.20
2018-09-05T05:56:42.048Z,99167.63
2018-09-05T05:59:16.287Z,99164.98
2018-09-05T06:01:50.599Z,99163.89
2018-09-05T06:04:24.952Z,99173.06
2018-09-05T06:06:59.419Z,99176.33
2018-09-05T06:09:34.103Z,99171.66
2018-09-05T06:12:08.507Z,99174.00
2018-09-05T06:14:42.891Z,99177.48
2018-09-05T06:17:17.334Z,99184.14
2018-09-05T06:19:52.020Z,99182.48
2018-09-05T06:22:26.656Z,99180.27
2018-09-05T06:25:05.019Z,99184.91
2018-09-05T06:27:46.956Z,99176.07
2018-09-05T06:33:20.588Z,99177.23
2018-09-05T06:35:54.931Z,99176.81
2018-09-05T06:38:29.332Z,99175.86
2018-09-05T06:41:03.648Z,99181.50
2018-09-05T06:43:38.043Z,99184.78
2018-09-05T06:46:12.439Z,99188.77
2018-09-05T06:48:46.658Z,99184.66
2018-09-05T06:51:21.044Z,99187.59
2018-09-05T06:53:56.055Z,99185.17
2018-09-05T06:56:30.547Z,99188.23
2018-09-05T06:59:04.900Z,99184.70
2018-09-05T07:01:39.283Z,99185.23
2018-09-05T07:04:14.236Z,99189.67
2018-09-05T07:06:48.429Z,99193.47
2018-09-05T07:09:22.841Z,99191.35
2018-09-05T07:11:57.235Z,99189.80
2018-09-05T07:14:31.858Z,99192.22
2018-09-05T07:17:06.627Z,99189.98
2018-09-05T07:19:40.845Z,99200.64
2018-09-05T07:22:15.258Z,99197.28
2018-09-05T07:24:49.871Z,99198.08
2018-09-05T07:27:24.320Z,99197.09
2018-09-05T07:29:58.811Z,99202.23
2018-09-05T07:32:33.095Z,99200.78
2018-09-05T07:35:07.411Z,99204.40
2018-09-05T07:37:49.073Z,99203.48
2018-09-05T07:40:23.440Z,99205.69
2018-09-05T07:42:58.057Z,99205.89
2018-09-05T07:45:32.911Z,99200.53
2018-09-05T07:48:07.218Z,99206.73
2018-09-05T07:50:41.510Z,99194.41
2018-09-05T07:53:15.780Z,99199.79
2018-09-05T07:55:50.145Z,99194.22
2018-09-05T07:58:25.168Z,99195.61
2018-09-05T08:00:59.469Z,99195.20
2018-09-05T08:03:34.036Z,99193.92
2018-09-05T08:06:08.753Z,99194.38
2018-09-05T08:08:43.144Z,99200.48
2018-09-05T08:11:17.772Z,99190.94
2018-09-05T08:13:52.195Z,99191.13
2018-09-05T08:16:26.448Z,99198.88
2018-09-05T08:19:00.695Z,99199.61
2018-09-05T08:21:35.040Z,99195.39
2018-09-05T08:24:09.457Z,99196.27
2018-09-05T08:26:44.096Z,99197.77
2018-09-05T08:29:18.617Z,99193.92
2018-09-05T08:31:53.057Z,99194.77
2018-09-05T08:34:41.308Z,99193.72
2018-09-05T08:37:15.879Z,99191.88
2018-09-05T08:39:50.102Z,99194.41
2018-09-05T08:42:24.671Z,99193.48
2018-09-05T08:44:59.260Z,99191.28
2018-09-05T08:47:33.605Z,99194.27
2018-09-05T08:50:08.140Z,99187.52
2018-09-05T08:52:42.495Z,99190.05
2018-09-05T08:55:17.345Z,99194.54
2018-09-05T08:57:51.507Z,99196.05
2018-09-05T09:00:25.753Z,99199.80
2018-09-05T09:03:00.451Z,99202.30
2018-09-05T09:05:34.828Z,99196.94
2018-09-05T09:08:09.460Z,99192.13
2018-09-05T09:10:43.820Z,99197.86
2018-09-05T09:13:18.276Z,99194.23
2018-09-05T09:15:52.513Z,99196.48
2018-09-05T09:18:26.908Z,99196.98
2018-09-05T09:21:01.211Z,99192.09
2018-09-05T09:23:35.631Z,99195.30
2018-09-05T09:26:10.404Z,99190.61
2018-09-05T09:28:44.720Z,99193.97
2018-09-05T09:31:18.939Z,99191.05
2018-09-05T09:33:53.255Z,99190.92
2018-09-05T09:36:27.789Z,99190.12
2018-09-05T09:39:02.048Z,99187.47
2018-09-05T09:41:36.552Z,99187.72
2018-09-05T09:44:11.874Z,99184.14
2018-09-05T09:46:52.823Z,99177.32
2018-09-05T09:49:27.657Z,99183.67
2018-09-05T09:52:15.157Z,99181.25
2018-09-05T09:54:50.964Z,99174.07
2018-09-05T09:57:33.183Z,99173.92
2018-09-05T10:00:08.084Z,99171.59
2018-09-05T10:03:06.572Z,99172.88
2018-09-05T10:05:47.020Z,99169.33
2018-09-05T10:08:26.820Z,99162.85
2018-09-05T10:11:05.813Z,99161.11
2018-09-05T10:13:45.625Z,99163.95
2018-09-05T10:16:25.550Z,99162.62
2018-09-05T10:19:00.174Z,99154.31
2018-09-05T10:21:34.660Z,99158.70
2018-09-05T10:24:08.979Z,99149.06
2018-09-05T10:26:43.844Z,99151.64
2018-09-05T10:29:18.900Z,99146.20
2018-09-05T10:31:53.403Z,99144.06
2018-09-05T10:34:27.653Z,99141.91
2018-09-05T10:37:02.555Z,99141.28
2018-09-05T10:39:36.812Z,99142.92
2018-09-05T10:42:11.212Z,99147.80
2018-09-05T10:44:46.071Z,99147.91
2018-09-05T10:47:22.107Z,99149.86
2018-09-05T10:52:55.438Z,99148.55
2018-09-05T10:55:29.860Z,99143.83
2018-09-05T10:58:04.559Z,99140.00
2018-09-05T11:00:38.899Z,99140.98
2018-09-05T11:03:13.307Z,99130.85
2018-09-05T11:05:47.895Z,99129.37
2018-09-05T11:08:22.287Z,99126.23
2018-09-05T11:10:57.036Z,99123.23
2018-09-05T11:13:31.379Z,99123.71
2018-09-05T11:16:05.806Z,99120.75
2018-09-05T11:18:40.147Z,99112.97
2018-09-05T11:21:14.411Z,99113.84
2018-09-05T11:23:48.815Z,99113.32
2018-09-05T11:26:23.235Z,99108.16
2018-09-05T11:28:58.320Z,99097.47
2018-09-05T11:31:32.464Z,99102.08
2018-09-05T11:34:07.108Z,99099.28
2018-09-05T11:36:41.543Z,99095.78
2018-09-05T11:39:15.910Z,99102.70
2018-09-05T11:41:50.479Z,99101.05
2018-09-05T11:44:24.856Z,99093.95
2018-09-05T11:46:59.352Z,99097.04
2018-09-05T11:49:35.516Z,99095.22
2018-09-05T11:52:10.380Z,99094.23
2018-09-05T11:54:44.775Z,99096.63
2018-09-05T11:57:19.257Z,99093.72
2018-09-05T11:59:53.915Z,99095.06
2018-09-05T12:02:28.307Z,99096.07
2018-09-05T12:05:02.579Z,99097.57
2018-09-05T12:07:36.976Z,99102.88
2018-09-05T12:10:11.276Z,99106.45
2018-09-05T12:12:45.627Z,99102.28
2018-09-05T12:15:19.921Z,99103.94
2018-09-05T12:17:54.574Z,99100.20
2018-09-05T12:20:28.759Z,99093.95
2018-09-05T12:23:03.203Z,99089.91
2018-09-05T12:25:37.891Z,99093.03
2018-09-05T12:28:12.327Z,99094.83
2018-09-05T12:30:46.727Z,99089.97
2018-09-05T12:33:21.107Z,99090.42
2018-09-05T12:35:55.460Z,99081.25
2018-09-05T12:38:31.921Z,99082.55
2018-09-05T12:41:07.558Z,99080.65
2018-09-05T12:43:42.129Z,99074.22
2018-09-05T12:46:17.160Z,99077.13
2018-09-05T12:48:57.771Z,99066.81
2018-09-05T12:51:32.409Z,99071.29
2018-09-05T12:54:07.541Z,99065.63
2018-09-05T12:59:49.968Z,99070.01
2018-09-05T13:02:24.552Z,99059.97
2018-09-05T13:04:59.251Z,99059.35
2018-09-05T13:07:33.889Z,99065.81
2018-09-05T13:10:08.904Z,99059.86
2018-09-05T13:12:45.196Z,99058.28
2018-09-05T13:15:28.555Z,99057.71
2018-09-05T13:18:15.116Z,99056.75
2018-09-05T13:20:49.565Z,99050.67
2018-09-05T13:26:35.932Z,99051.94
2018-09-05T13:29:10.892Z,99054.00
2018-09-05T13:31:45.670Z,99052.66
2018-09-05T13:34:20.245Z,99051.28
2018-09-05T13:36:54.826Z,99045.59
2018-09-05T13:39:29.439Z,99041.75
2018-09-05T13:42:03.946Z,99035.50
2018-09-05T13:44:38.641Z,99034.45
2018-09-05T13:47:13.154Z,99035.19
2018-09-05T13:49:47.592Z,99036.34
2018-09-05T13:52:22.027Z,99029.00
2018-09-05T13:54:56.472Z,99036.86
2018-09-05T13:57:31.149Z,99024.62
2018-09-05T14:00:05.680Z,99022.81
2018-09-05T14:02:40.090Z,99022.92
2018-09-05T14:05:15.112Z,99025.23
2018-09-05T14:07:49.573Z,99019.89
2018-09-05T14:10:24.328Z,99017.47
2018-09-05T14:12:58.789Z,99021.41
2018-09-05T14:15:33.337Z,99022.27
2018-09-05T14:18:07.997Z,99012.63
2018-09-05T14:20:42.646Z,99010.37
2018-09-05T14:23:17.248Z,99005.54
2018-09-05T14:25:51.912Z,99009.64
2018-09-05T14:28:26.567Z,99007.88
2018-09-05T14:31:01.108Z,99003.21
2018-09-05T14:33:35.540Z,98997.38
2018-09-05T14:36:10.001Z,98993.30
2018-09-05T14:38:45.031Z,98984.82
2018-09-05T14:41:19.464Z,98990.98
2018-09-05T14:43:53.901Z,98996.41
2018-09-05T14:46:28.241Z,98995.61
2018-09-05T14:49:02.797Z,98996.67
2018-09-05T14:51:37.253Z,99000.05
2018-09-05T14:54:11.727Z,98997.48
2018-09-05T14:56:46.384Z,98992.82
2018-09-05T14:59:21.216Z,98992.16
2018-09-05T15:01:55.581Z,98986.83
2018-09-05T15:04:30.179Z,98991.18
2018-09-05T15:07:04.598Z,98993.57
2018-09-05T15:09:39.288Z,98986.72
2018-09-05T15:12:13.836Z,98991.87
2018-09-05T15:14:48.320Z,98986.14
2018-09-05T15:17:22.765Z,98977.30
2018-09-05T15:19:57.436Z,98980.08
2018-09-05T15:22:31.957Z,98972.95
2018-09-05T15:25:06.813Z,98974.58
2018-09-05T15:27:41.589Z,98961.69
2018-09-05T15:30:16.333Z,98963.17
2018-09-05T15:32:50.791Z,98963.08
2018-09-05T15:35:25.440Z,98961.45
2018-09-05T15:38:00.009Z,98959.09
2018-09-05T15:40:34.599Z,98961.08
2018-09-05T15:43:08.996Z,98956.17
2018-09-05T15:45:43.494Z,98958.25
2018-09-05T15:48:17.947Z,98955.98
2018-09-05T15:50:52.384Z,98950.55
2018-09-05T15:53:27.228Z,98954.25
2018-09-05T15:56:01.677Z,98947.32
2018-09-05T15:58:36.593Z,98948.30
2018-09-05T16:01:15.579Z,98948.65
2018-09-05T16:03:54.273Z,98945.84
2018-09-05T16:06:29.240Z,98941.23
2018-09-05T16:09:04.249Z,98944.95
2018-09-05T16:11:38.900Z,98942.80
2018-09-05T16:14:14.256Z,98947.59
2018-09-05T16:16:48.915Z,98951.48
2018-09-05T16:19:23.541Z,98943.63
2018-09-05T16:21:58.183Z,98944.03
2018-09-05T16:24:32.730Z,98945.53
2018-09-05T16:27:07.841Z,98941.48
2018-09-05T16:29:42.237Z,98938.95
2018-09-05T16:32:16.679Z,98942.83
2018-09-05T16:34:51.029Z,98942.06
2018-09-05T16:37:25.620Z,98937.56
2018-09-05T16:40:00.266Z,98935.41
2018-09-05T16:42:34.772Z,98937.41
2018-09-05T16:45:09.508Z,98932.36
2018-09-05T16:47:44.308Z,98931.56
2018-09-05T16:50:18.964Z,98929.80
2018-09-05T16:52:53.702Z,98929.22
2018-09-05T16:55:28.241Z,98927.65
2018-09-05T16:58:02.733Z,98933.82
2018-09-05T17:00:37.985Z,98926.89
2018-09-05T17:03:12.697Z,98936.44
2018-09-05T17:05:47.268Z,98941.03
2018-09-05T17:08:21.668Z,98941.27
2018-09-05T17:10:56.327Z,98945.47
2018-09-05T17:13:30.989Z,98948.02
2018-09-05T17:16:06.528Z,98945.66
2018-09-05T17:18:41.317Z,98943.88
2018-09-05T17:21:16.104Z,98941.88
2018-09-05T17:24:02.661Z,98945.66
2018-09-05T17:26:37.649Z,98942.28
2018-09-05T17:29:12.376Z,98938.15
2018-09-05T17:31:47.001Z,98946.30
2018-09-05T17:34:21.704Z,98936.55
2018-09-05T17:36:56.317Z,98948.84
2018-09-05T17:39:31.045Z,98952.22
2018-09-05T17:42:05.776Z,98949.66
2018-09-05T17:44:40.420Z,98945.08
2018-09-05T17:47:15.097Z,98943.43
2018-09-05T17:49:49.841Z,98949.17
2018-09-05T17:52:24.344Z,98939.45
2018-09-05T17:54:58.881Z,98945.34
2018-09-05T17:57:33.348Z,98942.34
2018-09-05T18:00:08.180Z,98942.47
2018-09-05T18:02:42.721Z,98940.98
2018-09-05T18:05:17.209Z,98941.36
2018-09-05T18:07:51.828Z,98942.50
2018-09-05T18:10:26.485Z,98953.31
2018-09-05T18:13:01.297Z,98952.66
2018-09-05T18:15:35.970Z,98948.83
2018-09-05T18:18:10.392Z,98947.42
2018-09-05T18:20:44.902Z,98945.88
2018-09-05T18:23:19.381Z,98947.80
2018-09-05T18:25:53.820Z,98940.67
2018-09-05T18:28:28.446Z,98939.61
2018-09-05T18:31:02.955Z,98944.33
2018-09-05T18:33:37.717Z,98947.00
2018-09-05T18:36:12.270Z,98942.17
2018-09-05T18:38:46.909Z,98947.64
2018-09-05T18:41:21.537Z,98943.39
2018-09-05T18:43:56.076Z,98949.65
2018-09-05T18:46:30.960Z,98941.91
2018-09-05T18:49:05.546Z,98942.55
2018-09-05T18:51:40.036Z,98939.70
2018-09-05T18:54:14.507Z,98940.30
2018-09-05T18:56:48.965Z,98936.38
2018-09-05T18:59:23.442Z,98941.19
2018-09-05T19:01:58.147Z,98942.22
2018-09-05T19:04:32.676Z,98941.20
2018-09-05T19:07:07.335Z,98942.81
2018-09-05T19:09:41.985Z,98942.41
2018-09-05T19:12:16.592Z,98937.24
2018-09-05T19:14:51.038Z,98939.13
2018-09-05T19:17:25.670Z,98934.37
2018-09-05T19:20:00.252Z,98932.78
2018-09-05T19:22:34.830Z,98930.62
2018-09-05T19:25:09.501Z,98925.70
2018-09-05T19:27:44.051Z,98925.09
2018-09-05T19:30:19.145Z,98929.22
2018-09-05T19:32:53.521Z,98926.59
2018-09-05T19:35:28.250Z,98924.22
2018-09-05T19:38:02.701Z,98927.94
2018-09-05T19:40:37.456Z,98931.52
2018-09-05T19:43:12.108Z,98934.37
2018-09-05T19:45:46.705Z,98931.09
2018-09-05T19:48:21.188Z,98931.59
2018-09-05T19:50:55.801Z,98934.61
2018-09-05T19:53:30.417Z,98935.13
2018-09-05T19:56:04.849Z,98933.13
2018-09-05T19:58:43.577Z,98936.38
2018-09-05T20:01:34.029Z,98937.52
2018-09-05T20:04:08.664Z,98935.92
2018-09-05T20:06:43.772Z,98934.72
2018-09-05T20:09:18.373Z,98935.34
2018-09-05T20:11:52.920Z,98938.55
2018-09-05T20:14:27.905Z,98935.96
2018-09-05T20:17:02.477Z,98928.81
2018-09-05T20:19:37.163Z,98926.92
2018-09-05T20:22:12.260Z,98929.91
2018-09-05T20:24:46.908Z,98925.89
2018-09-05T20:27:21.498Z,98923.81
2018-09-05T20:29:56.640Z,98916.63
2018-09-05T20:32:31.013Z,98914.33
2018-09-05T20:35:05.641Z,98921.22
2018-09-05T20:37:40.169Z,98922.97
2018-09-05T20:40:14.720Z,98920.41
2018-09-05T20:42:49.312Z,98921.24
2018-09-05T20:45:23.853Z,98920.36
2018-09-05T20:47:58.745Z,98914.38
2018-09-05T20:50:33.329Z,98910.00
2018-09-05T20:53:08.271Z,98910.31
2018-09-05T20:55:42.920Z,98912.76
2018-09-05T20:58:18.239Z,98904.47
2018-09-05T21:00:52.729Z,98905.13
2018-09-05T21:03:27.361Z,98905.98
2018-09-05T21:06:24.441Z,98903.22
2018-09-05T21:09:00.496Z,98906.28
2018-09-05T21:11:35.090Z,98906.28
2018-09-05T21:14:09.853Z,98902.72
2018-09-05T21:16:44.566Z,98900.75
2018-09-05T21:19:19.108Z,98902.13
2018-09-05T21:21:54.045Z,98898.02
2018-09-05T21:24:28.549Z,98892.49
2018-09-05T21:27:03.073Z,98891.73
2018-09-05T21:29:38.035Z,98883.26
2018-09-05T21:32:12.604Z,98886.41
2018-09-05T21:34:47.188Z,98884.00
2018-09-05T21:37:21.720Z,98886.17
2018-09-05T21:39:56.320Z,98882.03
2018-09-05T21:42:30.902Z,98884.20
2018-09-05T21:45:05.953Z,98882.47
2018-09-05T21:47:40.513Z,98877.11
2018-09-05T21:50:15.129Z,98879.27
2018-09-05T21:52:50.347Z,98881.97
2018-09-05T21:55:24.869Z,98881.70
2018-09-05T21:58:00.050Z,98882.91
2018-09-05T22:00:34.645Z,98883.47
2018-09-05T22:03:09.253Z,98884.82
2018-09-05T22:05:43.818Z,98882.67
2018-09-05T22:08:18.264Z,98885.35
2018-09-05T22:10:52.936Z,98880.73
2018-09-05T22:13:27.511Z,98879.15
2018-09-05T22:16:02.161Z,98873.39
2018-09-05T22:18:36.898Z,98880.15
2018-09-05T22:21:11.437Z,98886.32
2018-09-05T22:23:46.384Z,98879.33
2018-09-05T22:26:21.242Z,98881.30
2018-09-05T22:28:55.684Z,98879.94
2018-09-05T22:31:30.253Z,98878.73
2018-09-05T22:34:04.812Z,98896.59
2018-09-05T22:36:39.397Z,98908.17
2018-09-05T22:39:13.880Z,98908.17
2018-09-05T22:41:48.293Z,98901.27
2018-09-05T22:44:34.176Z,98906.00
2018-09-05T22:47:19.976Z,98911.11
2018-09-05T22:50:11.210Z,98907.94
2018-09-05T22:53:04.790Z,98908.83
2018-09-05T22:55:55.217Z,98912.77
2018-09-05T22:58:55.669Z,98905.21
2018-09-05T23:02:16.393Z,98902.33
2018-09-05T23:05:59.689Z,98896.61
2018-09-05T23:08:38.475Z,98895.98
2018-09-05T23:11:24.374Z,98890.20
2018-09-05T23:15:11.152Z,98889.63
2018-09-05T23:20:14.777Z,98884.31
2018-09-05T23:23:00.694Z,98886.13
2018-09-05T23:25:35.141Z,98885.70
2018-09-05T23:28:09.645Z,98887.06
2018-09-05T23:30:44.297Z,98884.46
2018-09-05T23:33:18.842Z,98873.36
2018-09-05T23:35:53.738Z,98878.08
2018-09-05T23:38:28.728Z,98873.36
2018-09-05T23:41:03.321Z,98872.59
2018-09-05T23:43:37.778Z,98876.83
2018-09-05T23:46:12.439Z,98873.07
2018-09-05T23:48:47.034Z,98873.07
2018-09-05T23:51:21.520Z,98869.68
2018-09-05T23:53:56.367Z,98862.58
2018-09-05T23:56:30.950Z,98868.62
2018-09-05T23:59:06.486Z,98862.16
